Terminal Aerodrome Forecast
Issued by NWS

Home | Current Version | Previous Version | Text Only | Print | Product List | Glossary On
Versions: 1 2 3 4 5 6 7 8 9 10 11 12
000
FTUS45 KRIW 271100
TAFWRL
TAF
KWRL 271139Z 2712/2812 VRB04KT P6SM FEW120
     FM271800 VRB04KT P6SM SCT100 BKN150
     FM280300 VRB05KT P6SM FEW120
     FM280700 VRB04KT P6SM SKC=

USA.gov is the U.S. government's official web portal to all federal, state and local government web resources and services.